sensor_id;sensor_type;location;lat;lon;timestamp;pressure;altitude;pressure_sealevel;temperature;humidity
10618;BME280;5356;43.526;26.534;2023-04-04T00:01:14;98308.84;;;10.44;100.00
10618;BME280;5356;43.526;26.534;2023-04-04T00:03:40;98305.25;;;10.50;100.00
10618;BME280;5356;43.526;26.534;2023-04-04T00:06:07;98303.22;;;10.41;100.00
10618;BME280;5356;43.526;26.534;2023-04-04T00:08:38;98297.41;;;10.44;100.00
10618;BME280;5356;43.526;26.534;2023-04-04T00:11:04;98296.50;;;10.38;100.00
10618;BME280;5356;43.526;26.534;2023-04-04T00:13:30;98300.81;;;10.39;100.00
10618;BME280;5356;43.526;26.534;2023-04-04T00:15:56;98303.31;;;10.46;100.00
10618;BME280;5356;43.526;26.534;2023-04-04T00:18:22;98274.72;;;10.41;100.00
10618;BME280;5356;43.526;26.534;2023-04-04T00:20:48;98280.03;;;10.41;100.00
10618;BME280;5356;43.526;26.534;2023-04-04T00:23:13;98277.31;;;10.36;100.00
10618;BME280;5356;43.526;26.534;2023-04-04T00:25:39;98276.97;;;10.32;100.00
10618;BME280;5356;43.526;26.534;2023-04-04T00:28:07;98279.41;;;10.34;100.00
10618;BME280;5356;43.526;26.534;2023-04-04T00:30:33;98269.41;;;10.41;100.00
10618;BME280;5356;43.526;26.534;2023-04-04T00:33:01;98270.84;;;10.32;100.00
10618;BME280;5356;43.526;26.534;2023-04-04T00:35:27;98257.94;;;10.41;100.00
10618;BME280;5356;43.526;26.534;2023-04-04T00:37:53;98265.44;;;10.44;100.00
10618;BME280;5356;43.526;26.534;2023-04-04T00:40:18;98249.88;;;10.36;100.00
10618;BME280;5356;43.526;26.534;2023-04-04T00:42:44;98232.28;;;10.34;100.00
10618;BME280;5356;43.526;26.534;2023-04-04T00:45:10;98242.13;;;10.34;100.00
10618;BME280;5356;43.526;26.534;2023-04-04T00:47:36;98234.53;;;10.26;100.00
10618;BME280;5356;43.526;26.534;2023-04-04T00:50:02;98242.13;;;10.34;100.00
10618;BME280;5356;43.526;26.534;2023-04-04T00:52:28;98240.06;;;10.36;100.00
10618;BME280;5356;43.526;26.534;2023-04-04T00:54:54;98234.06;;;10.29;100.00
10618;BME280;5356;43.526;26.534;2023-04-04T00:57:29;98231.84;;;10.26;100.00
10618;BME280;5356;43.526;26.534;2023-04-04T00:59:58;98228.03;;;10.33;100.00
10618;BME280;5356;43.526;26.534;2023-04-04T01:02:28;98218.50;;;10.38;100.00
10618;BME280;5356;43.526;26.534;2023-04-04T01:04:54;98203.00;;;10.34;100.00
10618;BME280;5356;43.526;26.534;2023-04-04T01:07:19;98202.81;;;10.24;100.00
10618;BME280;5356;43.526;26.534;2023-04-04T01:09:46;98209.31;;;10.28;100.00
10618;BME280;5356;43.526;26.534;2023-04-04T01:12:11;98206.97;;;10.32;100.00
10618;BME280;5356;43.526;26.534;2023-04-04T01:14:40;98212.38;;;10.37;100.00
10618;BME280;5356;43.526;26.534;2023-04-04T01:17:09;98212.59;;;10.36;100.00
10618;BME280;5356;43.526;26.534;2023-04-04T01:19:48;98197.91;;;10.33;100.00
10618;BME280;5356;43.526;26.534;2023-04-04T01:22:18;98201.78;;;10.25;100.00
10618;BME280;5356;43.526;26.534;2023-04-04T01:24:45;98204.22;;;10.27;100.00
10618;BME280;5356;43.526;26.534;2023-04-04T01:27:14;98226.88;;;10.29;100.00
10618;BME280;5356;43.526;26.534;2023-04-04T01:29:43;98228.16;;;10.27;100.00
10618;BME280;5356;43.526;26.534;2023-04-04T01:32:19;98206.31;;;10.25;100.00
10618;BME280;5356;43.526;26.534;2023-04-04T01:35:01;98202.00;;;10.24;100.00
10618;BME280;5356;43.526;26.534;2023-04-04T01:37:47;98187.59;;;10.20;100.00
10618;BME280;5356;43.526;26.534;2023-04-04T01:40:24;98176.69;;;10.21;100.00
10618;BME280;5356;43.526;26.534;2023-04-04T01:42:50;98170.47;;;10.16;100.00
10618;BME280;5356;43.526;26.534;2023-04-04T01:45:23;98171.44;;;10.09;100.00
10618;BME280;5356;43.526;26.534;2023-04-04T01:47:48;98175.72;;;10.10;100.00
10618;BME280;5356;43.526;26.534;2023-04-04T01:50:15;98187.00;;;10.18;100.00
10618;BME280;5356;43.526;26.534;2023-04-04T01:52:40;98212.25;;;10.15;100.00
10618;BME280;5356;43.526;26.534;2023-04-04T01:55:06;98203.88;;;10.23;100.00
10618;BME280;5356;43.526;26.534;2023-04-04T01:57:32;98200.53;;;10.28;100.00
10618;BME280;5356;43.526;26.534;2023-04-04T01:59:58;98187.28;;;10.33;100.00
10618;BME280;5356;43.526;26.534;2023-04-04T02:02:25;98171.69;;;10.25;100.00
10618;BME280;5356;43.526;26.534;2023-04-04T02:04:50;98167.91;;;10.21;100.00
10618;BME280;5356;43.526;26.534;2023-04-04T02:07:16;98163.53;;;10.15;100.00
10618;BME280;5356;43.526;26.534;2023-04-04T02:09:42;98153.00;;;10.20;100.00
10618;BME280;5356;43.526;26.534;2023-04-04T02:12:08;98144.75;;;10.21;100.00
10618;BME280;5356;43.526;26.534;2023-04-04T02:14:33;98143.38;;;10.19;100.00
10618;BME280;5356;43.526;26.534;2023-04-04T02:17:00;98132.41;;;10.15;100.00
10618;BME280;5356;43.526;26.534;2023-04-04T02:19:26;98138.44;;;10.10;100.00
10618;BME280;5356;43.526;26.534;2023-04-04T02:21:51;98149.75;;;10.18;100.00
10618;BME280;5356;43.526;26.534;2023-04-04T02:24:17;98136.63;;;10.11;100.00
10618;BME280;5356;43.526;26.534;2023-04-04T02:26:42;98135.97;;;10.21;100.00
10618;BME280;5356;43.526;26.534;2023-04-04T02:29:10;98128.47;;;10.18;100.00
10618;BME280;5356;43.526;26.534;2023-04-04T02:31:36;98129.25;;;10.18;100.00
10618;BME280;5356;43.526;26.534;2023-04-04T02:34:05;98123.81;;;10.08;100.00
10618;BME280;5356;43.526;26.534;2023-04-04T02:36:30;98124.34;;;10.10;100.00
10618;BME280;5356;43.526;26.534;2023-04-04T02:38:59;98123.16;;;10.18;100.00
10618;BME280;5356;43.526;26.534;2023-04-04T02:41:25;98116.72;;;10.14;100.00
10618;BME280;5356;43.526;26.534;2023-04-04T02:43:53;98097.50;;;10.11;100.00
10618;BME280;5356;43.526;26.534;2023-04-04T02:46:19;98091.78;;;10.03;100.00
10618;BME280;5356;43.526;26.534;2023-04-04T02:48:44;98098.72;;;10.04;100.00
10618;BME280;5356;43.526;26.534;2023-04-04T02:51:13;98101.63;;;10.02;100.00
10618;BME280;5356;43.526;26.534;2023-04-04T02:53:45;98097.03;;;9.98;100.00
10618;BME280;5356;43.526;26.534;2023-04-04T02:56:13;98103.72;;;10.00;100.00
10618;BME280;5356;43.526;26.534;2023-04-04T02:58:39;98109.66;;;10.07;100.00
10618;BME280;5356;43.526;26.534;2023-04-04T03:01:05;98118.41;;;10.03;100.00
10618;BME280;5356;43.526;26.534;2023-04-04T03:03:31;98120.41;;;9.96;100.00
10618;BME280;5356;43.526;26.534;2023-04-04T03:05:57;98122.84;;;9.97;100.00
10618;BME280;5356;43.526;26.534;2023-04-04T03:08:23;98136.13;;;9.97;100.00
10618;BME280;5356;43.526;26.534;2023-04-04T03:10:52;98132.50;;;9.86;100.00
10618;BME280;5356;43.526;26.534;2023-04-04T03:13:18;98137.31;;;9.89;100.00
10618;BME280;5356;43.526;26.534;2023-04-04T03:15:43;98136.84;;;9.93;100.00
10618;BME280;5356;43.526;26.534;2023-04-04T03:18:09;98135.34;;;9.97;100.00
10618;BME280;5356;43.526;26.534;2023-04-04T03:20:35;98123.31;;;9.77;100.00
10618;BME280;5356;43.526;26.534;2023-04-04T03:23:01;98127.09;;;9.81;100.00
10618;BME280;5356;43.526;26.534;2023-04-04T03:25:26;98126.28;;;9.81;100.00
10618;BME280;5356;43.526;26.534;2023-04-04T03:27:55;98110.50;;;9.91;100.00
10618;BME280;5356;43.526;26.534;2023-04-04T03:30:20;98121.94;;;9.92;100.00
10618;BME280;5356;43.526;26.534;2023-04-04T03:32:46;98117.91;;;9.89;100.00
10618;BME280;5356;43.526;26.534;2023-04-04T03:35:12;98147.81;;;9.96;100.00
10618;BME280;5356;43.526;26.534;2023-04-04T03:37:38;98163.53;;;9.98;100.00
10618;BME280;5356;43.526;26.534;2023-04-04T03:40:04;98115.00;;;9.90;100.00
10618;BME280;5356;43.526;26.534;2023-04-04T03:42:34;98114.09;;;9.85;100.00
10618;BME280;5356;43.526;26.534;2023-04-04T03:45:02;98125.16;;;9.77;100.00
10618;BME280;5356;43.526;26.534;2023-04-04T03:47:33;98134.50;;;9.79;100.00
10618;BME280;5356;43.526;26.534;2023-04-04T03:49:59;98136.22;;;9.85;100.00
10618;BME280;5356;43.526;26.534;2023-04-04T03:52:31;98132.81;;;9.90;100.00
10618;BME280;5356;43.526;26.534;2023-04-04T03:55:05;98125.97;;;9.94;100.00
10618;BME280;5356;43.526;26.534;2023-04-04T03:57:34;98127.88;;;9.82;100.00
10618;BME280;5356;43.526;26.534;2023-04-04T04:00:01;98142.72;;;9.78;100.00
10618;BME280;5356;43.526;26.534;2023-04-04T04:02:31;98126.34;;;9.69;100.00
10618;BME280;5356;43.526;26.534;2023-04-04T04:04:56;98124.03;;;9.73;100.00
10618;BME280;5356;43.526;26.534;2023-04-04T04:07:22;98138.28;;;9.83;100.00
10618;BME280;5356;43.526;26.534;2023-04-04T04:09:51;98148.38;;;9.81;100.00
10618;BME280;5356;43.526;26.534;2023-04-04T04:12:19;98141.50;;;9.69;100.00
10618;BME280;5356;43.526;26.534;2023-04-04T04:14:45;98151.72;;;9.60;100.00
10618;BME280;5356;43.526;26.534;2023-04-04T04:17:10;98150.38;;;9.74;100.00
10618;BME280;5356;43.526;26.534;2023-04-04T04:19:36;98151.03;;;9.81;100.00
10618;BME280;5356;43.526;26.534;2023-04-04T04:22:01;98142.53;;;9.67;100.00
10618;BME280;5356;43.526;26.534;2023-04-04T04:24:27;98148.25;;;9.59;100.00
10618;BME280;5356;43.526;26.534;2023-04-04T04:26:52;98138.75;;;9.63;100.00
10618;BME280;5356;43.526;26.534;2023-04-04T04:29:18;98132.88;;;9.61;100.00
10618;BME280;5356;43.526;26.534;2023-04-04T04:31:44;98133.44;;;9.63;100.00
10618;BME280;5356;43.526;26.534;2023-04-04T04:34:09;98128.03;;;9.58;100.00
10618;BME280;5356;43.526;26.534;2023-04-04T04:36:35;98133.84;;;9.72;100.00
10618;BME280;5356;43.526;26.534;2023-04-04T04:39:01;98130.28;;;9.66;100.00
10618;BME280;5356;43.526;26.534;2023-04-04T04:41:27;98124.41;;;9.64;100.00
10618;BME280;5356;43.526;26.534;2023-04-04T04:43:56;98127.53;;;9.61;100.00
10618;BME280;5356;43.526;26.534;2023-04-04T04:46:22;98120.06;;;9.58;100.00
10618;BME280;5356;43.526;26.534;2023-04-04T04:48:47;98120.91;;;9.47;100.00
10618;BME280;5356;43.526;26.534;2023-04-04T04:51:13;98127.03;;;9.48;100.00
10618;BME280;5356;43.526;26.534;2023-04-04T04:53:39;98122.06;;;9.51;100.00
10618;BME280;5356;43.526;26.534;2023-04-04T04:56:08;98123.00;;;9.45;100.00
10618;BME280;5356;43.526;26.534;2023-04-04T04:58:33;98116.25;;;9.37;100.00
10618;BME280;5356;43.526;26.534;2023-04-04T05:00:59;98115.88;;;9.05;100.00
10618;BME280;5356;43.526;26.534;2023-04-04T05:03:25;98111.66;;;8.92;100.00
10618;BME280;5356;43.526;26.534;2023-04-04T05:05:51;98117.13;;;8.74;100.00
10618;BME280;5356;43.526;26.534;2023-04-04T05:08:17;98113.53;;;8.68;100.00
10618;BME280;5356;43.526;26.534;2023-04-04T05:10:43;98124.44;;;8.55;100.00
10618;BME280;5356;43.526;26.534;2023-04-04T05:13:08;98131.56;;;8.43;100.00
10618;BME280;5356;43.526;26.534;2023-04-04T05:15:34;98132.22;;;8.26;100.00
10618;BME280;5356;43.526;26.534;2023-04-04T05:18:00;98126.72;;;8.16;100.00
10618;BME280;5356;43.526;26.534;2023-04-04T05:20:25;98137.78;;;8.13;100.00
10618;BME280;5356;43.526;26.534;2023-04-04T05:22:51;98152.53;;;8.09;100.00
10618;BME280;5356;43.526;26.534;2023-04-04T05:25:16;98148.59;;;7.88;100.00
10618;BME280;5356;43.526;26.534;2023-04-04T05:27:45;98156.28;;;7.78;100.00
10618;BME280;5356;43.526;26.534;2023-04-04T05:30:12;98166.81;;;7.84;100.00
10618;BME280;5356;43.526;26.534;2023-04-04T05:32:37;98177.63;;;7.83;100.00
10618;BME280;5356;43.526;26.534;2023-04-04T05:35:03;98192.84;;;7.87;100.00
10618;BME280;5356;43.526;26.534;2023-04-04T05:37:29;98198.38;;;7.86;100.00
10618;BME280;5356;43.526;26.534;2023-04-04T05:39:54;98211.75;;;7.91;100.00
10618;BME280;5356;43.526;26.534;2023-04-04T05:42:20;98206.03;;;8.06;100.00
10618;BME280;5356;43.526;26.534;2023-04-04T05:44:46;98214.22;;;8.04;100.00
10618;BME280;5356;43.526;26.534;2023-04-04T05:47:11;98218.78;;;7.85;100.00
10618;BME280;5356;43.526;26.534;2023-04-04T05:49:36;98210.94;;;7.79;100.00
10618;BME280;5356;43.526;26.534;2023-04-04T05:52:02;98227.84;;;7.78;100.00
10618;BME280;5356;43.526;26.534;2023-04-04T05:54:27;98222.84;;;7.70;100.00
10618;BME280;5356;43.526;26.534;2023-04-04T05:56:53;98206.44;;;7.79;100.00
10618;BME280;5356;43.526;26.534;2023-04-04T05:59:18;98203.00;;;7.60;100.00
10618;BME280;5356;43.526;26.534;2023-04-04T06:01:44;98198.25;;;7.51;100.00
10618;BME280;5356;43.526;26.534;2023-04-04T06:04:10;98189.13;;;7.47;100.00
10618;BME280;5356;43.526;26.534;2023-04-04T06:06:35;98184.88;;;7.46;100.00
10618;BME280;5356;43.526;26.534;2023-04-04T06:09:01;98182.66;;;7.42;100.00
10618;BME280;5356;43.526;26.534;2023-04-04T06:11:27;98190.56;;;7.61;100.00
10618;BME280;5356;43.526;26.534;2023-04-04T06:13:53;98168.81;;;7.59;100.00
10618;BME280;5356;43.526;26.534;2023-04-04T06:16:19;98167.44;;;7.68;100.00
10618;BME280;5356;43.526;26.534;2023-04-04T06:18:46;98161.44;;;7.73;100.00
10618;BME280;5356;43.526;26.534;2023-04-04T06:21:12;98166.34;;;7.57;100.00
10618;BME280;5356;43.526;26.534;2023-04-04T06:23:38;98159.06;;;7.53;100.00
10618;BME280;5356;43.526;26.534;2023-04-04T06:26:04;98161.22;;;7.44;100.00
10618;BME280;5356;43.526;26.534;2023-04-04T06:28:29;98163.22;;;7.49;100.00
10618;BME280;5356;43.526;26.534;2023-04-04T06:30:55;98164.38;;;7.53;100.00
10618;BME280;5356;43.526;26.534;2023-04-04T06:33:20;98169.34;;;7.61;100.00
10618;BME280;5356;43.526;26.534;2023-04-04T06:35:46;98173.25;;;7.58;100.00
10618;BME280;5356;43.526;26.534;2023-04-04T06:38:12;98158.41;;;7.57;100.00
10618;BME280;5356;43.526;26.534;2023-04-04T06:40:37;98160.28;;;7.69;100.00
10618;BME280;5356;43.526;26.534;2023-04-04T06:43:03;98160.50;;;7.67;100.00
10618;BME280;5356;43.526;26.534;2023-04-04T06:45:29;98156.84;;;7.68;100.00
10618;BME280;5356;43.526;26.534;2023-04-04T06:47:57;98141.53;;;7.82;100.00
10618;BME280;5356;43.526;26.534;2023-04-04T06:50:29;98154.22;;;7.92;100.00
10618;BME280;5356;43.526;26.534;2023-04-04T06:52:59;98160.13;;;7.94;100.00
10618;BME280;5356;43.526;26.534;2023-04-04T06:56:07;98159.41;;;7.86;100.00
10618;BME280;5356;43.526;26.534;2023-04-04T07:01:46;98172.44;;;7.88;100.00
10618;BME280;5356;43.526;26.534;2023-04-04T07:04:22;98172.19;;;7.78;100.00
10618;BME280;5356;43.526;26.534;2023-04-04T07:07:03;98170.53;;;7.65;100.00
10618;BME280;5356;43.526;26.534;2023-04-04T07:09:55;98170.22;;;7.73;100.00
10618;BME280;5356;43.526;26.534;2023-04-04T07:12:50;98172.75;;;7.68;100.00
10618;BME280;5356;43.526;26.534;2023-04-04T07:15:28;98179.41;;;7.59;100.00
10618;BME280;5356;43.526;26.534;2023-04-04T07:18:23;98172.25;;;7.59;100.00
10618;BME280;5356;43.526;26.534;2023-04-04T07:20:58;98173.75;;;7.67;100.00
10618;BME280;5356;43.526;26.534;2023-04-04T07:23:29;98170.59;;;7.88;100.00
10618;BME280;5356;43.526;26.534;2023-04-04T07:25:55;98171.31;;;7.96;100.00
10618;BME280;5356;43.526;26.534;2023-04-04T07:28:21;98164.34;;;7.83;100.00
10618;BME280;5356;43.526;26.534;2023-04-04T07:30:47;98165.09;;;7.60;100.00
10618;BME280;5356;43.526;26.534;2023-04-04T07:33:13;98158.66;;;7.56;100.00
10618;BME280;5356;43.526;26.534;2023-04-04T07:35:38;98158.19;;;7.59;100.00
10618;BME280;5356;43.526;26.534;2023-04-04T07:38:10;98157.47;;;7.52;100.00
10618;BME280;5356;43.526;26.534;2023-04-04T07:41:15;98153.88;;;7.46;100.00
10618;BME280;5356;43.526;26.534;2023-04-04T07:44:11;98153.78;;;7.53;100.00
10618;BME280;5356;43.526;26.534;2023-04-04T07:50:44;98153.75;;;7.83;100.00
10618;BME280;5356;43.526;26.534;2023-04-04T07:53:13;98169.78;;;7.76;100.00
10618;BME280;5356;43.526;26.534;2023-04-04T07:56:00;98160.66;;;7.84;100.00
10618;BME280;5356;43.526;26.534;2023-04-04T07:58:44;98155.41;;;7.96;100.00
10618;BME280;5356;43.526;26.534;2023-04-04T08:04:19;98156.56;;;8.00;100.00
10618;BME280;5356;43.526;26.534;2023-04-04T08:06:44;98171.19;;;7.91;100.00
10618;BME280;5356;43.526;26.534;2023-04-04T08:09:13;98157.31;;;7.77;100.00
10618;BME280;5356;43.526;26.534;2023-04-04T08:12:04;98157.47;;;7.82;100.00
10618;BME280;5356;43.526;26.534;2023-04-04T08:14:30;98156.28;;;7.90;100.00
10618;BME280;5356;43.526;26.534;2023-04-04T08:16:57;98161.97;;;7.93;100.00
10618;BME280;5356;43.526;26.534;2023-04-04T08:20:27;98154.09;;;7.86;100.00
10618;BME280;5356;43.526;26.534;2023-04-04T08:23:25;98153.09;;;7.87;100.00
10618;BME280;5356;43.526;26.534;2023-04-04T08:26:03;98152.81;;;7.77;100.00
10618;BME280;5356;43.526;26.534;2023-04-04T08:31:59;98162.94;;;7.69;100.00
10618;BME280;5356;43.526;26.534;2023-04-04T08:34:31;98170.09;;;7.68;100.00
10618;BME280;5356;43.526;26.534;2023-04-04T08:37:09;98161.94;;;7.81;100.00
10618;BME280;5356;43.526;26.534;2023-04-04T08:40:02;98161.50;;;7.84;100.00
10618;BME280;5356;43.526;26.534;2023-04-04T08:42:38;98163.50;;;7.59;100.00
10618;BME280;5356;43.526;26.534;2023-04-04T08:45:05;98168.56;;;7.60;100.00
10618;BME280;5356;43.526;26.534;2023-04-04T08:47:36;98171.09;;;7.67;100.00
10618;BME280;5356;43.526;26.534;2023-04-04T08:50:04;98178.75;;;7.75;100.00
10618;BME280;5356;43.526;26.534;2023-04-04T08:52:34;98173.84;;;7.60;100.00
10618;BME280;5356;43.526;26.534;2023-04-04T09:46:53;98196.91;;;6.93;100.00
10618;BME280;5356;43.526;26.534;2023-04-04T10:55:39;98182.38;;;6.59;100.00
10618;BME280;5356;43.526;26.534;2023-04-04T11:12:50;98187.72;;;6.77;100.00
10618;BME280;5356;43.526;26.534;2023-04-04T11:19:01;98181.47;;;7.08;100.00
10618;BME280;5356;43.526;26.534;2023-04-04T11:22:40;98180.97;;;7.00;100.00
10618;BME280;5356;43.526;26.534;2023-04-04T11:25:33;98177.41;;;7.06;100.00
10618;BME280;5356;43.526;26.534;2023-04-04T12:14:17;98166.22;;;7.04;100.00
10618;BME280;5356;43.526;26.534;2023-04-04T12:31:13;98152.50;;;6.95;100.00
10618;BME280;5356;43.526;26.534;2023-04-04T12:48:49;98165.47;;;7.33;100.00
10618;BME280;5356;43.526;26.534;2023-04-04T12:51:47;98156.84;;;7.38;100.00
10618;BME280;5356;43.526;26.534;2023-04-04T13:16:34;98169.59;;;7.59;100.00
10618;BME280;5356;43.526;26.534;2023-04-04T13:19:28;98172.59;;;7.63;100.00
10618;BME280;5356;43.526;26.534;2023-04-04T13:22:08;98169.50;;;7.66;100.00
10618;BME280;5356;43.526;26.534;2023-04-04T13:24:34;98167.44;;;7.68;100.00
10618;BME280;5356;43.526;26.534;2023-04-04T13:27:33;98170.97;;;7.50;100.00
10618;BME280;5356;43.526;26.534;2023-04-04T13:30:18;98177.22;;;7.37;100.00
10618;BME280;5356;43.526;26.534;2023-04-04T13:36:25;98180.47;;;7.39;100.00
10618;BME280;5356;43.526;26.534;2023-04-04T13:39:08;98178.66;;;7.52;100.00
10618;BME280;5356;43.526;26.534;2023-04-04T13:41:51;98179.75;;;7.62;100.00
10618;BME280;5356;43.526;26.534;2023-04-04T13:44:20;98178.00;;;7.56;100.00
10618;BME280;5356;43.526;26.534;2023-04-04T13:50:25;98182.66;;;7.42;100.00
10618;BME280;5356;43.526;26.534;2023-04-04T13:53:17;98186.25;;;7.48;100.00
10618;BME280;5356;43.526;26.534;2023-04-04T13:56:20;98184.72;;;7.40;100.00
10618;BME280;5356;43.526;26.534;2023-04-04T13:59:34;98181.78;;;7.49;100.00
10618;BME280;5356;43.526;26.534;2023-04-04T14:02:29;98183.50;;;7.55;100.00
10618;BME280;5356;43.526;26.534;2023-04-04T14:04:54;98184.41;;;7.49;100.00
10618;BME280;5356;43.526;26.534;2023-04-04T14:07:23;98193.13;;;7.37;100.00
10618;BME280;5356;43.526;26.534;2023-04-04T14:22:17;98164.63;;;7.03;100.00
10618;BME280;5356;43.526;26.534;2023-04-04T14:28:16;98194.28;;;7.41;100.00
10618;BME280;5356;43.526;26.534;2023-04-04T14:31:12;98206.34;;;7.56;100.00
10618;BME280;5356;43.526;26.534;2023-04-04T14:36:43;98209.25;;;7.66;100.00
10618;BME280;5356;43.526;26.534;2023-04-04T14:39:23;98215.31;;;7.55;100.00
10618;BME280;5356;43.526;26.534;2023-04-04T14:41:57;98205.81;;;7.47;100.00
10618;BME280;5356;43.526;26.534;2023-04-04T14:44:47;98213.50;;;7.37;100.00
10618;BME280;5356;43.526;26.534;2023-04-04T14:47:18;98223.06;;;7.38;100.00
10618;BME280;5356;43.526;26.534;2023-04-04T14:53:04;98235.34;;;7.51;100.00
10618;BME280;5356;43.526;26.534;2023-04-04T14:56:24;98246.84;;;7.45;100.00
10618;BME280;5356;43.526;26.534;2023-04-04T14:59:29;98248.59;;;7.32;100.00
10618;BME280;5356;43.526;26.534;2023-04-04T15:03:31;98239.66;;;7.33;100.00
10618;BME280;5356;43.526;26.534;2023-04-04T15:44:43;98271.00;;;6.49;100.00
10618;BME280;5356;43.526;26.534;2023-04-04T16:01:58;98297.56;;;6.36;100.00
10618;BME280;5356;43.526;26.534;2023-04-04T16:15:19;98322.00;;;6.32;100.00
10618;BME280;5356;43.526;26.534;2023-04-04T16:29:23;98333.59;;;6.30;100.00
10618;BME280;5356;43.526;26.534;2023-04-04T16:42:36;98347.25;;;6.27;100.00
10618;BME280;5356;43.526;26.534;2023-04-04T16:48:36;98345.75;;;6.06;100.00
10618;BME280;5356;43.526;26.534;2023-04-04T16:51:08;98353.25;;;6.10;100.00
10618;BME280;5356;43.526;26.534;2023-04-04T16:53:37;98359.31;;;6.17;100.00
10618;BME280;5356;43.526;26.534;2023-04-04T16:56:06;98365.44;;;6.11;100.00
10618;BME280;5356;43.526;26.534;2023-04-04T16:58:39;98353.44;;;6.15;100.00
10618;BME280;5356;43.526;26.534;2023-04-04T17:05:05;98368.03;;;6.24;100.00
10618;BME280;5356;43.526;26.534;2023-04-04T17:07:35;98371.22;;;6.33;100.00
10618;BME280;5356;43.526;26.534;2023-04-04T17:10:06;98372.59;;;6.42;100.00
10618;BME280;5356;43.526;26.534;2023-04-04T17:28:27;98393.09;;;6.15;100.00
10618;BME280;5356;43.526;26.534;2023-04-04T18:09:44;98437.28;;;5.88;100.00
10618;BME280;5356;43.526;26.534;2023-04-04T18:12:14;98440.97;;;5.93;100.00
10618;BME280;5356;43.526;26.534;2023-04-04T18:14:40;98431.59;;;5.84;100.00
10618;BME280;5356;43.526;26.534;2023-04-04T18:17:05;98432.41;;;5.84;100.00
10618;BME280;5356;43.526;26.534;2023-04-04T18:19:31;98436.09;;;5.83;100.00
10618;BME280;5356;43.526;26.534;2023-04-04T18:21:56;98442.97;;;5.84;100.00
10618;BME280;5356;43.526;26.534;2023-04-04T18:24:25;98448.09;;;5.73;100.00
10618;BME280;5356;43.526;26.534;2023-04-04T18:26:51;98455.38;;;5.84;100.00
10618;BME280;5356;43.526;26.534;2023-04-04T18:29:17;98459.03;;;5.90;100.00
10618;BME280;5356;43.526;26.534;2023-04-04T18:31:43;98470.84;;;5.94;100.00
10618;BME280;5356;43.526;26.534;2023-04-04T18:34:10;98462.50;;;5.83;100.00
10618;BME280;5356;43.526;26.534;2023-04-04T18:36:39;98459.28;;;5.75;100.00
10618;BME280;5356;43.526;26.534;2023-04-04T18:39:04;98460.50;;;5.72;100.00
10618;BME280;5356;43.526;26.534;2023-04-04T18:41:31;98455.81;;;5.74;100.00
10618;BME280;5356;43.526;26.534;2023-04-04T18:43:56;98464.97;;;5.78;100.00
10618;BME280;5356;43.526;26.534;2023-04-04T18:46:22;98462.94;;;5.80;100.00
10618;BME280;5356;43.526;26.534;2023-04-04T18:48:47;98471.25;;;5.84;100.00
10618;BME280;5356;43.526;26.534;2023-04-04T18:51:13;98479.78;;;5.86;100.00
10618;BME280;5356;43.526;26.534;2023-04-04T18:53:39;98484.25;;;5.79;100.00
10618;BME280;5356;43.526;26.534;2023-04-04T18:56:04;98477.56;;;5.76;100.00
10618;BME280;5356;43.526;26.534;2023-04-04T18:58:30;98473.09;;;5.70;100.00
10618;BME280;5356;43.526;26.534;2023-04-04T19:00:56;98486.50;;;5.69;100.00
10618;BME280;5356;43.526;26.534;2023-04-04T19:03:22;98486.69;;;5.74;100.00
10618;BME280;5356;43.526;26.534;2023-04-04T19:05:49;98495.47;;;5.61;100.00
10618;BME280;5356;43.526;26.534;2023-04-04T19:08:16;98493.22;;;5.65;100.00
10618;BME280;5356;43.526;26.534;2023-04-04T19:10:47;98496.91;;;5.63;100.00
10618;BME280;5356;43.526;26.534;2023-04-04T19:13:15;98492.41;;;5.57;100.00
10618;BME280;5356;43.526;26.534;2023-04-04T19:15:41;98502.19;;;5.50;100.00
10618;BME280;5356;43.526;26.534;2023-04-04T19:18:08;98499.34;;;5.58;100.00
10618;BME280;5356;43.526;26.534;2023-04-04T19:20:33;98502.78;;;5.52;100.00
10618;BME280;5356;43.526;26.534;2023-04-04T19:22:59;98514.56;;;5.56;100.00
10618;BME280;5356;43.526;26.534;2023-04-04T19:25:25;98506.03;;;5.61;100.00
10618;BME280;5356;43.526;26.534;2023-04-04T19:27:51;98504.81;;;5.57;100.00
10618;BME280;5356;43.526;26.534;2023-04-04T19:30:47;98511.31;;;5.54;100.00
10618;BME280;5356;43.526;26.534;2023-04-04T19:33:18;98518.66;;;5.52;100.00
10618;BME280;5356;43.526;26.534;2023-04-04T19:38:33;98513.94;;;5.68;100.00
10618;BME280;5356;43.526;26.534;2023-04-04T19:43:47;98530.41;;;5.56;100.00
10618;BME280;5356;43.526;26.534;2023-04-04T19:46:19;98520.28;;;5.47;100.00
10618;BME280;5356;43.526;26.534;2023-04-04T19:48:50;98527.97;;;5.48;100.00
10618;BME280;5356;43.526;26.534;2023-04-04T19:53:47;98521.25;;;5.66;100.00
10618;BME280;5356;43.526;26.534;2023-04-04T19:56:15;98530.00;;;5.66;100.00
10618;BME280;5356;43.526;26.534;2023-04-04T19:58:41;98521.88;;;5.81;100.00
10618;BME280;5356;43.526;26.534;2023-04-04T20:01:08;98523.91;;;5.92;100.00
10618;BME280;5356;43.526;26.534;2023-04-04T20:03:38;98528.75;;;6.08;100.00
10618;BME280;5356;43.526;26.534;2023-04-04T20:11:49;98531.63;;;5.74;100.00
10618;BME280;5356;43.526;26.534;2023-04-04T20:14:19;98535.72;;;5.70;100.00
10618;BME280;5356;43.526;26.534;2023-04-04T20:16:45;98530.00;;;5.79;100.00
10618;BME280;5356;43.526;26.534;2023-04-04T20:19:16;98541.78;;;5.77;100.00
10618;BME280;5356;43.526;26.534;2023-04-04T20:21:43;98538.75;;;5.67;100.00
10618;BME280;5356;43.526;26.534;2023-04-04T20:24:08;98536.09;;;5.60;100.00
10618;BME280;5356;43.526;26.534;2023-04-04T20:29:13;98545.25;;;5.71;100.00
10618;BME280;5356;43.526;26.534;2023-04-04T20:31:43;98540.34;;;5.74;100.00
10618;BME280;5356;43.526;26.534;2023-04-04T20:34:40;98549.13;;;5.75;100.00
10618;BME280;5356;43.526;26.534;2023-04-04T20:37:14;98539.75;;;5.66;100.00
10618;BME280;5356;43.526;26.534;2023-04-04T20:40:33;98549.31;;;5.73;100.00